Time;durP1;ratioP1;P1;durP2;ratioP2;P2;SDS_P1;SDS_P2;PMS_P1;PMS_P2;Temp;Humidity;BMP_temperature;BMP_pressure;BME280_temperature;BME280_humidity;BME280_pressure;Samples;Min_cycle;Max_cycle;Signal;HPM_P1;HPM_P2
2023/06/21 00:01:05;;;;;;;16.90;11.52;;;25.90;61.30;;;;;;7673228;22;83408;-59
2023/06/21 00:04:06;;;;;;;16.55;12.27;;;25.90;61.40;;;;;;7675653;22;83385;-60
2023/06/21 00:07:07;;;;;;;14.50;11.70;;;25.90;61.50;;;;;;7675027;22;82903;-61
2023/06/21 00:10:07;;;;;;;16.48;12.48;;;25.90;61.50;;;;;;7675143;22;83452;-61
2023/06/21 00:13:08;;;;;;;16.25;12.23;;;25.90;61.60;;;;;;7675053;22;83267;-60
2023/06/21 00:16:09;;;;;;;16.98;12.57;;;25.90;61.60;;;;;;7674194;22;83142;-60
2023/06/21 00:19:09;;;;;;;15.55;12.75;;;25.80;61.70;;;;;;7674774;22;83132;-55
2023/06/21 00:22:10;;;;;;;29.35;12.50;;;25.80;61.80;;;;;;7674632;22;83070;-53
2023/06/21 00:25:10;;;;;;;16.17;12.70;;;25.80;61.90;;;;;;7675232;22;83312;-54
2023/06/21 00:28:11;;;;;;;17.40;12.68;;;25.70;61.90;;;;;;7674551;22;83290;-57
2023/06/21 00:31:11;;;;;;;21.02;13.00;;;25.70;61.90;;;;;;7674016;22;82853;-56
2023/06/21 00:34:12;;;;;;;17.85;13.85;;;25.70;62.00;;;;;;7675177;22;83284;-57
2023/06/21 00:37:12;;;;;;;19.02;13.30;;;25.60;62.00;;;;;;7675020;22;83207;-56
2023/06/21 00:40:13;;;;;;;15.80;12.70;;;25.60;61.90;;;;;;7674759;22;83107;-56
2023/06/21 00:43:16;;;;;;;17.25;11.65;;;25.60;61.90;;;;;;7647317;22;87041;-57
2023/06/21 00:46:17;;;;;;;16.67;12.57;;;25.70;61.70;;;;;;7672922;22;83684;-57
2023/06/21 00:49:18;;;;;;;18.35;13.93;;;25.60;61.60;;;;;;7642031;22;85681;-56
2023/06/21 00:52:19;;;;;;;15.88;12.07;;;25.70;61.70;;;;;;7670076;22;83012;-57
2023/06/21 00:55:19;;;;;;;15.85;12.13;;;25.70;61.70;;;;;;7673903;22;83064;-65
2023/06/21 00:58:20;;;;;;;16.63;13.07;;;25.70;61.50;;;;;;7669083;22;82999;-66
2023/06/21 01:01:20;;;;;;;14.85;11.63;;;25.70;61.40;;;;;;7645207;22;84378;-64
2023/06/21 01:04:24;;;;;;;16.40;13.02;;;25.70;61.50;;;;;;7647539;22;83443;-66
2023/06/21 01:07:29;;;;;;;17.52;12.00;;;25.70;61.30;;;;;;7675513;22;83136;-65
2023/06/21 01:10:29;;;;;;;15.75;11.60;;;25.70;61.30;;;;;;7646500;22;85579;-66
2023/06/21 01:13:30;;;;;;;18.85;12.63;;;25.60;61.30;;;;;;7674275;22;83137;-59
2023/06/21 01:16:30;;;;;;;17.20;12.15;;;25.60;61.30;;;;;;7678568;22;83719;-60
2023/06/21 01:19:31;;;;;;;17.83;12.27;;;25.60;61.50;;;;;;7686112;22;83397;-60
2023/06/21 01:22:32;;;;;;;15.70;12.30;;;25.60;61.20;;;;;;7674269;22;83259;-59
2023/06/21 01:25:33;;;;;;;17.95;12.55;;;25.60;61.30;;;;;;7646805;22;85763;-59
2023/06/21 01:28:34;;;;;;;17.70;13.15;;;25.60;61.30;;;;;;7669218;22;83715;-58
2023/06/21 01:31:34;;;;;;;16.92;12.23;;;25.60;61.20;;;;;;7674407;22;83390;-59
2023/06/21 01:34:35;;;;;;;16.00;12.52;;;25.60;61.30;;;;;;7673278;22;83183;-58
2023/06/21 01:37:36;;;;;;;14.43;11.77;;;25.60;61.30;;;;;;7674526;22;83394;-58
2023/06/21 01:40:36;;;;;;;15.65;11.57;;;25.60;61.40;;;;;;7673400;22;82860;-59
2023/06/21 01:43:37;;;;;;;14.07;11.00;;;25.60;61.30;;;;;;7647044;22;85831;-60
2023/06/21 01:46:37;;;;;;;15.68;12.68;;;25.60;61.40;;;;;;7646418;22;83273;-60
2023/06/21 01:49:38;;;;;;;15.52;12.05;;;25.60;61.40;;;;;;7646038;22;84468;-61
2023/06/21 01:52:38;;;;;;;16.30;12.13;;;25.50;61.40;;;;;;7674032;22;83750;-60
2023/06/21 01:55:41;;;;;;;13.77;11.70;;;25.50;61.30;;;;;;7646583;22;84208;-60
2023/06/21 01:58:41;;;;;;;20.58;12.45;;;25.50;61.40;;;;;;7646473;22;85160;-59
2023/06/21 02:01:42;;;;;;;15.80;12.48;;;25.60;61.50;;;;;;7646561;22;86139;-60
2023/06/21 02:04:43;;;;;;;15.80;11.77;;;25.60;61.50;;;;;;7673331;22;83194;-60
2023/06/21 02:07:43;;;;;;;15.43;11.27;;;25.60;61.50;;;;;;7673891;22;83100;-60
2023/06/21 02:10:44;;;;;;;16.30;12.07;;;25.60;61.50;;;;;;7646837;22;86315;-60
2023/06/21 02:13:45;;;;;;;15.23;11.52;;;25.60;61.50;;;;;;7673867;22;82835;-60
2023/06/21 02:16:45;;;;;;;13.63;11.60;;;25.60;61.50;;;;;;7681749;22;83351;-60
2023/06/21 02:19:46;;;;;;;18.70;12.77;;;25.60;61.60;;;;;;7675517;22;82868;-60
2023/06/21 02:22:46;;;;;;;15.93;12.05;;;25.60;61.60;;;;;;7647789;22;84060;-61
2023/06/21 02:25:47;;;;;;;15.23;11.88;;;25.60;61.60;;;;;;7673455;22;83102;-60
2023/06/21 02:28:47;;;;;;;16.83;11.90;;;25.60;61.60;;;;;;7646532;22;86063;-61
2023/06/21 02:31:49;;;;;;;14.60;11.82;;;25.60;61.60;;;;;;7647131;22;85683;-61
2023/06/21 02:34:50;;;;;;;15.20;11.55;;;25.60;61.70;;;;;;7647212;22;84179;-62
2023/06/21 02:37:50;;;;;;;14.57;11.85;;;25.60;61.60;;;;;;7674092;22;83201;-61
2023/06/21 02:40:51;;;;;;;17.38;12.88;;;25.50;62.30;;;;;;7674521;22;82901;-61
2023/06/21 02:43:52;;;;;;;16.77;11.95;;;25.50;61.60;;;;;;7647054;22;85534;-61
2023/06/21 02:46:52;;;;;;;17.48;11.50;;;25.60;61.60;;;;;;7676547;22;83299;-61
2023/06/21 02:49:53;;;;;;;17.00;12.77;;;25.60;61.70;;;;;;7673515;22;83415;-62
2023/06/21 02:52:54;;;;;;;17.17;12.10;;;25.60;61.60;;;;;;7645901;22;85949;-60
2023/06/21 02:55:54;;;;;;;14.32;11.38;;;25.60;62.30;;;;;;7646303;22;85829;-60
2023/06/21 02:58:54;;;;;;;17.27;12.45;;;25.60;61.60;;;;;;7645942;22;84491;-62
2023/06/21 03:01:55;;;;;;;18.60;12.35;;;25.60;61.60;;;;;;7645932;22;83806;-62
2023/06/21 03:04:55;;;;;;;16.83;11.48;;;25.50;61.70;;;;;;7647467;22;86067;-60
2023/06/21 03:07:56;;;;;;;18.40;12.27;;;25.50;61.70;;;;;;7644640;22;84039;-62
2023/06/21 03:10:57;;;;;;;19.02;12.10;;;25.50;61.70;;;;;;7677997;22;83762;-63
2023/06/21 03:13:58;;;;;;;18.33;11.55;;;25.40;61.80;;;;;;7654513;22;85073;-62
2023/06/21 03:16:58;;;;;;;17.88;11.60;;;25.40;61.80;;;;;;7646296;22;83625;-61
2023/06/21 03:19:59;;;;;;;15.25;12.45;;;25.40;61.80;;;;;;7646465;22;85943;-61
2023/06/21 03:23:00;;;;;;;17.17;12.48;;;25.40;61.90;;;;;;7674240;22;82864;-62
2023/06/21 03:26:01;;;;;;;17.20;12.60;;;25.30;61.90;;;;;;7646097;22;85837;-63
2023/06/21 03:29:06;;;;;;;19.17;12.65;;;25.30;61.90;;;;;;7671908;22;83858;-61
2023/06/21 03:32:08;;;;;;;14.68;11.85;;;25.30;61.90;;;;;;7672808;22;83722;-64
2023/06/21 03:35:09;;;;;;;17.42;12.65;;;25.40;62.10;;;;;;7646217;22;85861;-64
2023/06/21 03:38:10;;;;;;;17.90;12.48;;;25.40;62.10;;;;;;7647289;22;85754;-61
2023/06/21 03:41:15;;;;;;;17.50;12.15;;;25.40;62.20;;;;;;7648705;22;85389;-63
2023/06/21 03:44:15;;;;;;;15.68;12.10;;;25.40;62.20;;;;;;7650376;22;85683;-59
2023/06/21 03:47:16;;;;;;;16.83;12.45;;;25.40;62.10;;;;;;7674434;22;83054;-61
2023/06/21 03:50:17;;;;;;;14.50;12.20;;;25.40;62.20;;;;;;7646204;22;85912;-71
2023/06/21 03:53:19;;;;;;;19.63;12.27;;;25.50;62.20;;;;;;7647946;22;85349;-69
2023/06/21 03:56:21;;;;;;;18.20;12.38;;;25.50;62.20;;;;;;7646917;22;86425;-70
2023/06/21 03:59:21;;;;;;;22.55;13.48;;;25.50;62.60;;;;;;7675554;22;83229;-62
2023/06/21 04:02:24;;;;;;;18.67;12.45;;;25.50;62.70;;;;;;7664120;22;83209;-61
2023/06/21 04:05:24;;;;;;;16.23;12.35;;;25.50;62.60;;;;;;7667031;22;83134;-58
2023/06/21 04:08:25;;;;;;;17.30;13.55;;;25.50;62.60;;;;;;7670965;22;83734;-60
2023/06/21 04:11:25;;;;;;;19.63;12.35;;;25.50;62.70;;;;;;7619784;22;86586;-64
2023/06/21 04:14:27;;;;;;;15.70;12.80;;;25.50;62.60;;;;;;7622792;22;84284;-66
2023/06/21 04:17:28;;;;;;;34.60;20.02;;;25.60;63.10;;;;;;7648201;22;84951;-64
2023/06/21 04:20:30;;;;;;;152.98;76.43;;;25.60;63.30;;;;;;7647435;22;84027;-66
2023/06/21 04:23:30;;;;;;;355.75;170.63;;;25.70;63.70;;;;;;7674724;22;83310;-65
2023/06/21 04:26:32;;;;;;;636.97;331.15;;;25.70;63.50;;;;;;7643492;22;85668;-62
2023/06/21 04:29:36;;;;;;;479.63;232.90;;;25.70;63.60;;;;;;7641597;22;86615;-63
2023/06/21 04:32:44;;;;;;;420.20;196.98;;;25.80;63.70;;;;;;7670496;22;85473;-65
2023/06/21 04:35:45;;;;;;;294.95;140.32;;;25.80;63.90;;;;;;7670090;22;85330;-58
2023/06/21 04:38:48;;;;;;;285.70;136.80;;;25.80;63.50;;;;;;7640004;22;86646;-58
2023/06/21 04:41:51;;;;;;;224.02;105.72;;;25.80;63.50;;;;;;7665981;22;86068;-58
2023/06/21 04:44:51;;;;;;;211.25;103.68;;;25.90;63.80;;;;;;7667147;22;85550;-59
2023/06/21 04:47:56;;;;;;;169.80;83.85;;;25.90;63.70;;;;;;7668026;22;85603;-57
2023/06/21 04:50:57;;;;;;;134.30;67.13;;;25.90;64.20;;;;;;7672071;22;85079;-58
2023/06/21 04:54:01;;;;;;;129.85;61.90;;;25.90;64.20;;;;;;7645241;22;83409;-65
2023/06/21 04:57:02;;;;;;;83.80;40.30;;;25.90;64.10;;;;;;7670158;22;83358;-66
2023/06/21 05:00:06;;;;;;;95.45;43.17;;;25.90;63.80;;;;;;7667419;22;83904;-65
2023/06/21 05:03:07;;;;;;;53.55;27.45;;;25.90;63.50;;;;;;7666996;22;83869;-65
2023/06/21 05:06:08;;;;;;;44.45;26.60;;;25.90;63.30;;;;;;7666905;22;83640;-65
2023/06/21 05:09:11;;;;;;;40.15;22.38;;;25.90;63.20;;;;;;7669920;22;82994;-65
2023/06/21 05:12:12;;;;;;;37.67;19.90;;;25.90;63.10;;;;;;7668975;22;83030;-61
2023/06/21 05:15:12;;;;;;;29.92;19.88;;;25.90;63.10;;;;;;7652389;22;83983;-61
2023/06/21 05:18:13;;;;;;;33.60;18.88;;;25.90;63.10;;;;;;7667476;22;83568;-62
2023/06/21 05:21:13;;;;;;;27.58;19.52;;;25.90;63.30;;;;;;7670294;22;83896;-61
2023/06/21 05:24:14;;;;;;;35.67;17.65;;;25.90;63.50;;;;;;7670528;22;83268;-60
2023/06/21 05:27:14;;;;;;;34.88;18.77;;;25.90;63.60;;;;;;7649525;22;83976;-61
2023/06/21 05:30:15;;;;;;;35.40;17.73;;;25.90;63.60;;;;;;7621132;22;84006;-63
2023/06/21 05:33:16;;;;;;;31.48;18.23;;;25.90;63.90;;;;;;7535933;22;84908;-63
2023/06/21 05:36:16;;;;;;;27.25;16.80;;;25.90;64.10;;;;;;7582345;22;83969;-62
2023/06/21 05:39:17;;;;;;;26.73;16.55;;;25.90;64.20;;;;;;7667366;22;83095;-63
2023/06/21 05:42:17;;;;;;;26.83;17.05;;;25.90;64.10;;;;;;7672909;22;83634;-62
2023/06/21 05:45:20;;;;;;;26.40;15.77;;;25.90;64.40;;;;;;7670366;22;83178;-62
2023/06/21 05:48:20;;;;;;;24.38;17.08;;;25.90;64.30;;;;;;7673445;22;82902;-63
2023/06/21 05:51:21;;;;;;;23.33;15.88;;;25.90;64.20;;;;;;7665555;22;83424;-63
2023/06/21 05:54:21;;;;;;;28.42;17.38;;;25.90;64.40;;;;;;7640138;22;83392;-62
2023/06/21 05:57:24;;;;;;;27.73;16.73;;;25.90;64.60;;;;;;7677984;22;84585;-63
2023/06/21 06:00:24;;;;;;;26.33;16.13;;;25.90;64.50;;;;;;7689058;22;82787;-63
2023/06/21 06:03:25;;;;;;;22.90;16.02;;;25.90;64.10;;;;;;7671175;22;83377;-62
2023/06/21 06:06:25;;;;;;;25.25;15.18;;;25.90;64.30;;;;;;7669181;22;83197;-62
2023/06/21 06:09:26;;;;;;;24.58;15.23;;;26.00;64.70;;;;;;7666943;22;82926;-63
2023/06/21 06:12:27;;;;;;;22.85;15.75;;;25.90;64.40;;;;;;7668065;22;83697;-65
2023/06/21 06:15:27;;;;;;;22.98;15.18;;;26.00;64.20;;;;;;7643262;22;85542;-65
2023/06/21 06:18:28;;;;;;;21.83;14.45;;;26.00;64.60;;;;;;7666698;22;83526;-64
2023/06/21 06:21:28;;;;;;;20.38;14.63;;;26.00;64.40;;;;;;7664726;22;89928;-64
2023/06/21 06:24:29;;;;;;;21.98;15.40;;;26.10;64.40;;;;;;7667490;22;83217;-64
2023/06/21 06:27:29;;;;;;;23.95;14.38;;;26.10;64.90;;;;;;7672860;22;83262;-64
2023/06/21 06:30:30;;;;;;;21.52;14.35;;;26.10;64.90;;;;;;7638324;22;84506;-63
2023/06/21 06:33:30;;;;;;;22.40;15.35;;;26.10;64.90;;;;;;7666175;22;83725;-64
2023/06/21 06:36:31;;;;;;;22.52;13.90;;;26.10;65.00;;;;;;7668265;22;83331;-63
2023/06/21 06:39:31;;;;;;;19.15;12.93;;;26.10;64.80;;;;;;7666406;22;83010;-62
2023/06/21 06:42:32;;;;;;;20.70;14.13;;;26.10;64.60;;;;;;7669840;22;83905;-62
2023/06/21 06:45:32;;;;;;;16.90;12.68;;;26.20;64.60;;;;;;7668074;22;83770;-60
2023/06/21 06:48:33;;;;;;;20.30;14.45;;;26.20;64.70;;;;;;7655344;22;83749;-59
2023/06/21 06:51:33;;;;;;;20.05;13.68;;;26.20;64.80;;;;;;7666062;22;83826;-59
2023/06/21 06:54:34;;;;;;;25.05;15.48;;;26.20;64.60;;;;;;7664548;22;83400;-60
2023/06/21 06:57:36;;;;;;;16.58;12.98;;;26.20;65.00;;;;;;7670859;22;82970;-61
2023/06/21 07:00:36;;;;;;;18.02;13.20;;;26.20;64.90;;;;;;7668803;22;83023;-59
2023/06/21 07:03:37;;;;;;;18.73;13.05;;;26.20;64.90;;;;;;7667904;22;82853;-62
2023/06/21 07:06:37;;;;;;;16.70;13.45;;;26.20;65.10;;;;;;7668021;22;83793;-61
2023/06/21 07:09:38;;;;;;;20.80;13.48;;;26.20;65.80;;;;;;7666509;22;83229;-61
2023/06/21 07:12:39;;;;;;;18.08;13.82;;;26.30;65.70;;;;;;7669562;22;90461;-62
2023/06/21 07:15:39;;;;;;;19.42;13.73;;;26.30;66.30;;;;;;7669074;22;83478;-60
2023/06/21 07:18:40;;;;;;;22.15;14.18;;;26.30;66.00;;;;;;7669972;22;83221;-60
2023/06/21 07:21:40;;;;;;;21.13;14.65;;;26.40;66.10;;;;;;7670459;22;83387;-60
2023/06/21 07:24:41;;;;;;;21.27;14.45;;;26.30;66.00;;;;;;7668547;22;83470;-61
2023/06/21 07:27:41;;;;;;;18.60;14.15;;;26.30;65.90;;;;;;7669732;22;82915;-60
2023/06/21 07:30:42;;;;;;;22.48;14.75;;;26.30;66.20;;;;;;7669781;22;83540;-66
2023/06/21 07:33:42;;;;;;;19.85;14.50;;;26.30;66.40;;;;;;7667998;22;83076;-65
2023/06/21 07:36:43;;;;;;;20.40;14.57;;;26.40;66.30;;;;;;7640263;22;83130;-62
2023/06/21 07:39:43;;;;;;;21.73;15.07;;;26.40;66.40;;;;;;7672384;22;83759;-63
2023/06/21 07:42:44;;;;;;;19.70;15.02;;;26.40;66.10;;;;;;7664412;22;83535;-59
2023/06/21 07:45:44;;;;;;;21.60;13.95;;;26.40;66.20;;;;;;7651103;22;83805;-65
2023/06/21 07:48:45;;;;;;;22.73;15.25;;;26.40;66.20;;;;;;7661567;22;83098;-64
2023/06/21 07:51:45;;;;;;;22.75;14.52;;;26.40;66.40;;;;;;7667336;22;83226;-62
2023/06/21 07:54:48;;;;;;;23.02;14.73;;;26.40;66.40;;;;;;7668045;22;83120;-62
2023/06/21 07:57:48;;;;;;;18.13;15.02;;;26.50;66.40;;;;;;7667825;22;82985;-63
2023/06/21 08:00:49;;;;;;;25.17;15.48;;;26.50;66.40;;;;;;7665449;22;83113;-63
2023/06/21 08:03:49;;;;;;;21.27;15.85;;;26.50;66.50;;;;;;7666902;22;83642;-63
2023/06/21 08:06:50;;;;;;;27.13;14.70;;;26.50;66.70;;;;;;7667164;22;83675;-64
2023/06/21 08:09:50;;;;;;;23.17;15.07;;;26.50;66.20;;;;;;7670709;22;83517;-64
2023/06/21 08:12:51;;;;;;;21.33;14.60;;;26.50;66.80;;;;;;7670452;22;83566;-63
2023/06/21 08:15:51;;;;;;;18.17;14.50;;;26.60;66.70;;;;;;7663849;22;82887;-59
2023/06/21 08:18:52;;;;;;;20.05;14.25;;;26.60;66.70;;;;;;7668389;22;83559;-59
2023/06/21 08:21:53;;;;;;;21.77;14.38;;;26.60;66.60;;;;;;7670120;22;83546;-59
2023/06/21 08:24:53;;;;;;;19.95;14.15;;;26.60;66.80;;;;;;7670845;22;82926;-59
2023/06/21 08:27:53;;;;;;;20.55;13.77;;;26.70;67.00;;;;;;7638050;22;84613;-59
2023/06/21 08:30:54;;;;;;;19.52;13.88;;;26.60;66.80;;;;;;7670658;22;83013;-59
2023/06/21 08:33:54;;;;;;;20.15;14.05;;;26.70;67.00;;;;;;7669073;22;83828;-59
2023/06/21 08:36:55;;;;;;;22.15;14.55;;;26.70;66.90;;;;;;7680590;22;83117;-68
2023/06/21 08:39:57;;;;;;;18.70;13.18;;;26.60;66.70;;;;;;7699223;22;82815;-68
2023/06/21 08:42:58;;;;;;;17.52;12.55;;;26.70;66.20;;;;;;7696000;22;82686;-67
2023/06/21 08:46:03;;;;;;;18.48;13.40;;;26.70;66.50;;;;;;7675808;22;82826;-66
2023/06/21 08:49:03;;;;;;;18.30;12.73;;;26.70;66.50;;;;;;7668977;22;83409;-67
2023/06/21 08:52:04;;;;;;;19.90;13.70;;;26.70;66.20;;;;;;7666586;22;83092;-67
2023/06/21 08:55:05;;;;;;;17.80;13.30;;;26.70;66.00;;;;;;7666448;22;83186;-68
2023/06/21 08:58:05;;;;;;;17.02;12.32;;;26.70;65.70;;;;;;7671829;22;82867;-69
2023/06/21 09:01:06;;;;;;;15.13;11.85;;;26.80;65.80;;;;;;7668090;22;84043;-66
2023/06/21 09:04:06;;;;;;;16.02;13.10;;;26.80;65.50;;;;;;7671223;22;83066;-68
2023/06/21 09:07:07;;;;;;;16.15;12.02;;;26.80;65.50;;;;;;7670472;22;83726;-67
2023/06/21 09:10:07;;;;;;;17.05;12.63;;;26.80;65.50;;;;;;7671415;22;84164;-68
2023/06/21 09:13:08;;;;;;;20.20;12.48;;;26.80;65.40;;;;;;7674237;22;83759;-68
2023/06/21 09:16:08;;;;;;;14.38;12.50;;;26.80;65.20;;;;;;7671439;22;85905;-67
2023/06/21 09:19:09;;;;;;;16.00;12.65;;;26.80;65.10;;;;;;7670717;22;83346;-67
2023/06/21 09:22:09;;;;;;;16.95;12.20;;;26.80;65.20;;;;;;7668701;22;82997;-68
2023/06/21 09:25:10;;;;;;;16.30;11.48;;;26.80;64.90;;;;;;7670602;22;83648;-67
2023/06/21 09:28:10;;;;;;;16.85;11.95;;;26.90;65.10;;;;;;7670153;22;83429;-66
2023/06/21 09:31:11;;;;;;;16.95;12.63;;;26.90;64.80;;;;;;7642636;22;85883;-57
2023/06/21 09:34:11;;;;;;;16.17;11.23;;;26.90;64.80;;;;;;7670071;22;83336;-56
2023/06/21 09:37:12;;;;;;;21.50;12.23;;;26.90;64.50;;;;;;7666530;22;83531;-57
2023/06/21 09:40:13;;;;;;;14.60;11.65;;;27.00;64.30;;;;;;7642453;22;83901;-56
2023/06/21 09:43:13;;;;;;;14.98;11.80;;;27.00;64.20;;;;;;7670502;22;83422;-56
2023/06/21 09:46:14;;;;;;;15.23;11.60;;;27.00;64.20;;;;;;7669248;22;87513;-59
2023/06/21 09:49:16;;;;;;;15.75;11.15;;;27.00;64.00;;;;;;7664723;22;84477;-60
2023/06/21 09:52:17;;;;;;;16.23;11.52;;;27.00;63.90;;;;;;7669735;22;83165;-59
2023/06/21 09:55:17;;;;;;;15.30;11.88;;;27.10;64.10;;;;;;7671434;22;84294;-59
2023/06/21 09:58:18;;;;;;;15.20;11.52;;;27.10;63.70;;;;;;7668071;22;84787;-59
2023/06/21 10:01:18;;;;;;;15.95;11.65;;;27.10;63.80;;;;;;7669715;22;85744;-59
2023/06/21 10:04:19;;;;;;;17.17;12.45;;;27.10;63.60;;;;;;7671919;22;83608;-59
2023/06/21 10:07:20;;;;;;;15.27;11.32;;;27.10;63.60;;;;;;7671488;22;82963;-56
2023/06/21 10:10:20;;;;;;;13.00;10.88;;;27.10;63.60;;;;;;7668650;22;83235;-56
2023/06/21 10:13:21;;;;;;;15.73;11.15;;;27.10;63.60;;;;;;7672373;22;82717;-56
2023/06/21 10:16:21;;;;;;;21.67;12.50;;;27.10;63.60;;;;;;7643698;22;83103;-53
2023/06/21 10:19:25;;;;;;;13.23;10.63;;;27.20;63.40;;;;;;7669609;22;82992;-54
2023/06/21 10:22:25;;;;;;;13.80;11.05;;;27.20;63.30;;;;;;7671025;22;83342;-56
2023/06/21 10:25:26;;;;;;;14.32;10.93;;;27.30;63.00;;;;;;7672298;22;83050;-55
2023/06/21 10:28:26;;;;;;;15.10;10.75;;;27.40;62.50;;;;;;7666426;22;82891;-57
2023/06/21 10:31:27;;;;;;;14.95;10.93;;;27.40;60.50;;;;;;7671860;22;83104;-54
2023/06/21 10:34:27;;;;;;;14.43;10.63;;;27.40;60.90;;;;;;7673576;22;83844;-54
2023/06/21 10:37:28;;;;;;;16.30;11.15;;;27.40;61.20;;;;;;7673477;22;82984;-54
2023/06/21 10:40:28;;;;;;;16.63;11.40;;;27.40;61.50;;;;;;7673516;22;90553;-56
2023/06/21 10:43:29;;;;;;;12.98;10.50;;;27.20;61.20;;;;;;7674241;22;82920;-67
2023/06/21 10:46:29;;;;;;;13.40;11.10;;;27.20;61.30;;;;;;7674405;22;82797;-67
2023/06/21 10:49:30;;;;;;;17.15;11.80;;;27.20;61.50;;;;;;7673797;22;82783;-67
2023/06/21 10:52:30;;;;;;;13.00;10.88;;;27.20;61.70;;;;;;7674232;22;83035;-68
2023/06/21 10:55:31;;;;;;;14.10;11.75;;;27.20;61.50;;;;;;7673762;22;82885;-68
2023/06/21 10:58:31;;;;;;;14.80;10.13;;;27.20;61.70;;;;;;7675904;22;84154;-68
2023/06/21 11:01:32;;;;;;;13.07;10.45;;;27.30;61.70;;;;;;7674424;22;82870;-68
2023/06/21 11:04:32;;;;;;;13.13;10.95;;;27.30;61.70;;;;;;7673612;22;83283;-68
2023/06/21 11:07:33;;;;;;;13.43;11.18;;;27.30;61.70;;;;;;7673525;22;83213;-67
2023/06/21 11:10:33;;;;;;;12.43;10.82;;;27.30;61.60;;;;;;7672992;22;83014;-67
2023/06/21 11:13:34;;;;;;;12.65;10.43;;;27.30;61.50;;;;;;7672571;22;83162;-67
2023/06/21 11:16:36;;;;;;;12.52;10.80;;;27.30;61.60;;;;;;7673279;22;83283;-67
2023/06/21 11:19:37;;;;;;;13.50;11.15;;;27.30;61.60;;;;;;7673312;22;82984;-69
2023/06/21 11:22:38;;;;;;;16.17;11.13;;;27.30;61.60;;;;;;7653852;22;83381;-65
2023/06/21 11:25:38;;;;;;;17.55;11.82;;;27.30;61.60;;;;;;7674086;22;82904;-68
2023/06/21 11:28:39;;;;;;;13.52;11.15;;;27.20;61.70;;;;;;7673640;22;83153;-67
2023/06/21 11:31:40;;;;;;;12.80;10.75;;;27.20;61.80;;;;;;7673432;22;82990;-67
2023/06/21 11:34:46;;;;;;;13.95;11.27;;;27.20;62.00;;;;;;7673051;22;83268;-69
2023/06/21 11:37:50;;;;;;;17.63;11.30;;;27.10;62.00;;;;;;7674508;22;83122;-69
2023/06/21 11:40:50;;;;;;;12.55;10.60;;;27.10;62.00;;;;;;7673774;22;83046;-58
2023/06/21 11:43:51;;;;;;;15.88;11.77;;;27.10;62.10;;;;;;7672701;22;83019;-58
2023/06/21 11:46:51;;;;;;;13.88;11.63;;;27.10;62.20;;;;;;7672238;22;82956;-59
2023/06/21 11:49:52;;;;;;;15.57;11.55;;;27.10;62.50;;;;;;7671123;22;83178;-60
2023/06/21 11:52:52;;;;;;;16.52;12.15;;;27.00;62.60;;;;;;7672310;22;84040;-59
2023/06/21 11:55:53;;;;;;;16.83;11.93;;;27.00;62.70;;;;;;7672106;22;83314;-59
2023/06/21 11:58:54;;;;;;;14.45;11.85;;;27.00;63.60;;;;;;7674508;22;84114;-60
2023/06/21 12:01:54;;;;;;;16.27;12.98;;;27.00;63.50;;;;;;7675218;22;83454;-59
2023/06/21 12:04:55;;;;;;;13.60;11.43;;;27.00;63.60;;;;;;7675027;22;83017;-60
2023/06/21 12:07:55;;;;;;;15.52;11.77;;;27.10;63.80;;;;;;7675206;22;83222;-60
2023/06/21 12:10:56;;;;;;;16.27;12.35;;;27.00;63.70;;;;;;7675189;22;83096;-59
2023/06/21 12:13:56;;;;;;;17.15;12.52;;;27.00;63.70;;;;;;7674338;22;83209;-59
2023/06/21 12:16:57;;;;;;;13.77;11.98;;;27.00;63.70;;;;;;7674732;22;83397;-59
2023/06/21 12:19:57;;;;;;;16.83;11.80;;;27.00;63.60;;;;;;7674174;22;83186;-60
2023/06/21 12:22:58;;;;;;;16.02;11.60;;;27.00;63.70;;;;;;7674748;22;83167;-59
2023/06/21 12:25:58;;;;;;;16.75;12.45;;;27.00;63.80;;;;;;7674457;22;84776;-59
2023/06/21 12:28:59;;;;;;;17.88;11.57;;;26.90;63.60;;;;;;7673853;22;83240;-60
2023/06/21 12:32:00;;;;;;;22.45;12.52;;;26.90;63.60;;;;;;7647543;22;86422;-60
2023/06/21 12:35:00;;;;;;;15.30;11.98;;;26.90;63.50;;;;;;7673694;22;82966;-59
2023/06/21 12:38:01;;;;;;;20.15;11.45;;;26.90;63.60;;;;;;7672037;22;83739;-59
2023/06/21 12:41:01;;;;;;;14.90;11.05;;;26.90;63.70;;;;;;7674312;22;83073;-60
2023/06/21 12:44:02;;;;;;;20.35;12.00;;;26.80;63.50;;;;;;7673306;22;83917;-59
2023/06/21 12:47:04;;;;;;;14.00;10.90;;;26.80;63.60;;;;;;7673682;22;85364;-59
2023/06/21 12:50:04;;;;;;;15.88;10.95;;;26.80;63.80;;;;;;7672743;22;83332;-59
2023/06/21 12:53:05;;;;;;;13.60;11.50;;;26.80;63.80;;;;;;7668945;22;83900;-58
2023/06/21 12:56:05;;;;;;;14.02;11.30;;;26.80;63.90;;;;;;7673436;22;83167;-59
2023/06/21 12:59:06;;;;;;;15.52;11.23;;;26.80;64.60;;;;;;7646997;22;83257;-60
2023/06/21 13:02:06;;;;;;;16.67;11.43;;;26.80;65.00;;;;;;7674094;22;83342;-59
2023/06/21 13:05:07;;;;;;;14.75;12.52;;;26.80;65.20;;;;;;7674890;22;82933;-58
2023/06/21 13:08:07;;;;;;;15.68;11.93;;;26.80;65.50;;;;;;7673395;22;84438;-59
2023/06/21 13:11:08;;;;;;;13.95;11.60;;;26.80;66.80;;;;;;7673854;22;83554;-67
2023/06/21 13:14:08;;;;;;;15.85;11.88;;;26.80;66.50;;;;;;7674501;22;83171;-67
2023/06/21 13:17:09;;;;;;;21.95;12.45;;;26.80;66.80;;;;;;7674304;22;83329;-69
2023/06/21 13:20:10;;;;;;;14.88;11.98;;;26.90;67.20;;;;;;7674352;22;83453;-68
2023/06/21 13:23:11;;;;;;;24.63;11.73;;;26.80;70.80;;;;;;7674037;22;83063;-69
2023/06/21 13:26:11;;;;;;;15.65;11.73;;;26.80;71.70;;;;;;7675127;22;82929;-67
2023/06/21 13:29:12;;;;;;;14.48;11.73;;;26.90;71.30;;;;;;7661399;22;83638;-64
2023/06/21 13:32:12;;;;;;;15.73;10.75;;;27.00;72.50;;;;;;7663339;22;83587;-69
2023/06/21 13:35:13;;;;;;;15.20;9.80;;;27.10;71.90;;;;;;7671241;22;83553;-66
2023/06/21 13:38:16;;;;;;;12.18;9.85;;;27.10;70.20;;;;;;7640436;22;84384;-65
2023/06/21 13:41:17;;;;;;;44.60;25.75;;;27.10;70.30;;;;;;7678346;22;80145;-67
2023/06/21 13:44:17;;;;;;;67.70;40.72;;;27.20;69.40;;;;;;7678662;22;83827;-65
2023/06/21 13:47:18;;;;;;;88.53;49.35;;;27.20;68.50;;;;;;7674922;22;82921;-65
2023/06/21 13:50:18;;;;;;;91.78;50.50;;;27.20;67.80;;;;;;7623585;22;86162;-65
2023/06/21 13:53:19;;;;;;;148.35;79.93;;;27.30;67.40;;;;;;7671876;22;84359;-65
2023/06/21 13:56:20;;;;;;;186.88;104.40;;;27.30;67.20;;;;;;7649493;22;83452;-66
2023/06/21 13:59:20;;;;;;;162.75;89.47;;;27.40;67.10;;;;;;7672759;22;85396;-66
2023/06/21 14:02:24;;;;;;;136.93;76.10;;;27.40;65.90;;;;;;7676217;22;84364;-66
2023/06/21 14:05:25;;;;;;;146.70;80.45;;;27.40;65.20;;;;;;7675583;22;83655;-58
2023/06/21 14:08:25;;;;;;;166.90;88.57;;;27.40;65.00;;;;;;7672239;22;83184;-61
2023/06/21 14:11:26;;;;;;;85.30;46.00;;;27.50;65.20;;;;;;7675959;22;82893;-58
2023/06/21 14:14:26;;;;;;;59.38;35.50;;;27.50;64.50;;;;;;7676088;22;83552;-59
2023/06/21 14:17:27;;;;;;;49.70;26.25;;;27.50;64.40;;;;;;7675399;22;83480;-59
2023/06/21 14:20:27;;;;;;;45.17;25.70;;;27.50;63.90;;;;;;7675841;22;84312;-56
2023/06/21 14:23:28;;;;;;;41.95;22.98;;;27.60;64.40;;;;;;7639820;22;85822;-65
2023/06/21 14:26:28;;;;;;;39.03;21.50;;;27.60;63.90;;;;;;7676057;22;82992;-64
2023/06/21 14:29:29;;;;;;;29.77;16.65;;;27.70;64.30;;;;;;7676259;22;82918;-66
2023/06/21 14:32:30;;;;;;;29.85;15.73;;;27.70;63.60;;;;;;7676326;22;83981;-66
2023/06/21 14:35:30;;;;;;;27.25;16.23;;;27.70;63.90;;;;;;7671666;22;83067;-64
2023/06/21 14:38:31;;;;;;;31.23;18.00;;;27.70;63.90;;;;;;7676275;22;83212;-68
2023/06/21 14:41:31;;;;;;;36.75;16.98;;;27.80;64.40;;;;;;7675587;22;83200;-60
2023/06/21 14:44:32;;;;;;;25.00;16.63;;;27.80;64.80;;;;;;7674821;22;83590;-59
2023/06/21 14:47:32;;;;;;;26.92;15.60;;;27.70;64.60;;;;;;7674375;22;83841;-58
2023/06/21 14:50:33;;;;;;;25.80;14.48;;;27.70;64.70;;;;;;7673366;22;82714;-62
2023/06/21 14:53:38;;;;;;;26.00;14.30;;;27.70;64.60;;;;;;7672800;22;83140;-61
2023/06/21 14:56:38;;;;;;;19.20;13.50;;;27.70;64.60;;;;;;7671038;22;83164;-60
2023/06/21 14:59:39;;;;;;;19.80;12.43;;;27.70;64.70;;;;;;7673059;22;83711;-60
2023/06/21 15:02:41;;;;;;;19.50;12.20;;;27.70;65.00;;;;;;7672571;22;82982;-61
2023/06/21 15:05:42;;;;;;;17.00;10.55;;;27.70;65.20;;;;;;7667821;22;83005;-62
2023/06/21 15:08:42;;;;;;;16.83;9.25;;;27.60;65.40;;;;;;7669716;22;83570;-62
2023/06/21 15:11:43;;;;;;;11.73;9.05;;;27.60;65.60;;;;;;7674741;22;83567;-59
2023/06/21 15:14:43;;;;;;;13.23;7.82;;;27.60;65.60;;;;;;7647065;22;81516;-59